ローマ/フィウミチーノ の空港の天気 - METARとTAF

ローマ・レオナルド・ダ・ビンチ国際空港 ( LIRF / FCO ) - イタリア ローマ
飛行場実況気象(Metar)
観測時間11/12 04:20 CET (11/12 03:20 UTC)
風向・風速北東 3m/s
視程10km以上
天気現象
少しの雲 雲底高度 1520m
気温13℃
湿度82%
気圧999hPa
METARLIRF 120320Z 05006KT 360V080 9999 FEW050 13/10 Q0999 NOSIG
過去の天気等 Google飛行場航空写真 Wunderground天気予報

過去48時間のMETAR

飛行場予報(TAF)
発表時間: 11/12 00:00 CET (11/11 23:00 UTC)
予報対象時間: 12日1時 CET ~ 13日7時 CET
風向・風速北北東 5m/s
視程10km以上
全天の4割程度の雲 雲底高度 910m
12日11時 CET ~ 12日13時 CET に徐々に
風向・風速南東 7m/s
12日11時 CET ~ 13日1時 CET に一時的に
天気現象雷雨
12日15時 CET ~ 12日17時 CET に徐々に
風向・風速南東 8m/s 瞬間風速 13m/s
13日4時 CET ~ 13日7時 CET に徐々に
風向・風速北西 5m/s
TAF LIRF 112300Z 1200/1306 03010KT 9999 SCT030
BECMG 1210/1212 14013KT
TEMPO 1210/1224 TSRA
BECMG 1214/1216 14015G25KT
BECMG 1303/1306 32010KT